Time;durP1;ratioP1;P1;durP2;ratioP2;P2;SDS_P1;SDS_P2;PMS_P1;PMS_P2;Temp;Humidity;BMP_temperature;BMP_pressure;BME280_temperature;BME280_humidity;BME280_pressure;Samples;Min_cycle;Max_cycle;Signal;HPM_P1;HPM_P2
2024/02/04 00:00:26;;;;;;;9.87;7.97;;;10.00;99.90;;;;;;5142422;27;20205;-76
2024/02/04 00:02:52;;;;;;;9.07;8.00;;;10.00;99.90;;;;;;5124628;27;20202;-76
2024/02/04 00:05:18;;;;;;;8.70;7.90;;;10.00;99.90;;;;;;5142448;27;20268;-75
2024/02/04 00:07:44;;;;;;;9.33;8.50;;;10.10;99.90;;;;;;5143080;27;20247;-75
2024/02/04 00:10:11;;;;;;;10.50;9.40;;;10.10;99.90;;;;;;5142791;27;20294;-75
2024/02/04 00:12:36;;;;;;;12.10;9.97;;;10.10;99.90;;;;;;5142525;27;20224;-76
2024/02/04 00:15:04;;;;;;;12.73;10.40;;;10.10;99.90;;;;;;5144049;27;20184;-75
2024/02/04 00:17:32;;;;;;;12.47;11.00;;;10.10;99.90;;;;;;5142528;27;20168;-74
2024/02/04 00:20:02;;;;;;;11.77;10.57;;;10.00;99.90;;;;;;5140221;27;20192;-74
2024/02/04 00:22:28;;;;;;;14.07;12.17;;;10.10;99.90;;;;;;5141076;27;20165;-75
2024/02/04 00:24:54;;;;;;;14.13;12.37;;;10.10;99.90;;;;;;5138881;27;20234;-75
2024/02/04 00:27:19;;;;;;;15.63;13.03;;;10.10;99.90;;;;;;5137196;27;20168;-75
2024/02/04 00:29:45;;;;;;;13.57;12.03;;;10.10;99.90;;;;;;5137779;27;20255;-75
2024/02/04 00:32:11;;;;;;;12.97;11.67;;;10.10;99.90;;;;;;5138271;27;20251;-75
2024/02/04 00:34:36;;;;;;;13.37;11.40;;;10.10;99.90;;;;;;5118898;27;20195;-75
2024/02/04 00:37:02;;;;;;;13.77;11.60;;;10.10;99.90;;;;;;5139436;27;20677;-75
2024/02/04 00:39:28;;;;;;;12.83;11.47;;;10.10;99.90;;;;;;5140484;27;20168;-76
2024/02/04 00:41:54;;;;;;;12.73;11.23;;;10.10;99.90;;;;;;5142433;27;20203;-76
2024/02/04 00:44:19;;;;;;;11.27;10.17;;;10.10;99.90;;;;;;5142620;27;20215;-76
2024/02/04 00:46:48;;;;;;;11.53;10.37;;;10.10;99.90;;;;;;5139983;27;20168;-76
2024/02/04 00:49:13;;;;;;;11.00;9.90;;;10.10;99.90;;;;;;5140591;27;20160;-76
2024/02/04 00:51:39;;;;;;;11.50;9.50;;;10.00;99.90;;;;;;5140356;27;20247;-76
2024/02/04 00:54:05;;;;;;;9.70;8.77;;;10.10;99.90;;;;;;5138673;27;20287;-74
2024/02/04 00:56:30;;;;;;;9.67;8.77;;;10.00;99.90;;;;;;5122462;27;20188;-76
2024/02/04 00:58:56;;;;;;;10.27;9.13;;;10.00;99.90;;;;;;5138657;27;20672;-75
2024/02/04 01:01:22;;;;;;;8.20;7.50;;;10.00;99.90;;;;;;5137796;27;20278;-74
2024/02/04 01:03:48;;;;;;;8.47;7.77;;;10.00;99.90;;;;;;5136936;27;20308;-74
2024/02/04 01:06:14;;;;;;;8.57;7.63;;;10.00;99.90;;;;;;5135781;27;20168;-76
2024/02/04 01:08:39;;;;;;;9.83;9.03;;;10.00;99.90;;;;;;5135493;27;20179;-74
2024/02/04 01:11:05;;;;;;;8.10;7.40;;;10.00;99.90;;;;;;5135654;27;20267;-74
2024/02/04 01:13:31;;;;;;;8.40;7.57;;;10.00;99.90;;;;;;5135480;27;20164;-74
2024/02/04 01:15:57;;;;;;;8.80;8.00;;;10.00;99.90;;;;;;5135767;27;20254;-75
2024/02/04 01:18:22;;;;;;;7.93;7.30;;;10.00;99.90;;;;;;5137186;27;20227;-75
2024/02/04 01:20:48;;;;;;;8.87;8.07;;;10.00;99.90;;;;;;5137058;27;20240;-74
2024/02/04 01:23:17;;;;;;;8.87;8.07;;;10.00;99.90;;;;;;5117162;27;20179;-74
2024/02/04 01:25:43;;;;;;;7.93;7.23;;;10.00;99.90;;;;;;5135117;27;20218;-73
2024/02/04 01:28:08;;;;;;;8.67;7.83;;;10.00;99.90;;;;;;5135269;27;20168;-76
2024/02/04 01:30:34;;;;;;;8.43;7.83;;;10.00;99.90;;;;;;5116325;27;20542;-74
2024/02/04 01:33:00;;;;;;;7.70;7.00;;;10.00;99.90;;;;;;5136514;27;20172;-74
2024/02/04 01:35:25;;;;;;;8.77;8.07;;;10.00;99.90;;;;;;5138414;27;20204;-74
2024/02/04 01:37:51;;;;;;;8.27;7.57;;;9.90;99.90;;;;;;5138386;27;20180;-75
2024/02/04 01:40:17;;;;;;;8.67;7.87;;;9.90;99.90;;;;;;5135931;27;20567;-75
2024/02/04 01:42:43;;;;;;;8.63;7.83;;;9.90;99.90;;;;;;5136490;27;20168;-75
2024/02/04 01:45:11;;;;;;;9.37;8.47;;;10.00;99.90;;;;;;5136833;27;20184;-74
2024/02/04 01:47:37;;;;;;;9.70;8.80;;;10.00;99.90;;;;;;5135657;27;20167;-74
2024/02/04 01:50:03;;;;;;;9.07;8.27;;;10.00;99.90;;;;;;5136080;28;20172;-74
2024/02/04 01:52:33;;;;;;;8.23;7.53;;;10.00;99.90;;;;;;5134910;28;20203;-75
2024/02/04 01:55:00;;;;;;;9.13;8.30;;;10.00;99.90;;;;;;5135578;28;20610;-73
2024/02/04 01:57:26;;;;;;;8.73;7.97;;;10.00;99.90;;;;;;5132641;28;20176;-71
2024/02/04 01:59:54;;;;;;;9.20;8.40;;;10.00;99.90;;;;;;5132021;28;20167;-73
2024/02/04 02:02:20;;;;;;;8.37;7.57;;;10.00;99.90;;;;;;5132495;28;20178;-73
2024/02/04 02:04:47;;;;;;;8.77;7.97;;;10.00;99.90;;;;;;5131966;28;20715;-73
2024/02/04 02:07:15;;;;;;;8.10;7.40;;;10.00;99.90;;;;;;5132159;28;20580;-73
2024/02/04 02:09:41;;;;;;;8.70;8.00;;;10.00;99.90;;;;;;5132073;28;20537;-73
2024/02/04 02:12:14;;;;;;;8.13;7.43;;;10.00;99.90;;;;;;5132334;28;20174;-72
2024/02/04 02:14:45;;;;;;;8.53;7.73;;;10.00;99.90;;;;;;5131789;28;20240;-72
2024/02/04 02:17:17;;;;;;;8.37;7.57;;;10.00;99.90;;;;;;5132419;28;20212;-72
2024/02/04 02:19:59;;;;;;;9.03;7.97;;;10.00;99.90;;;;;;5134040;27;20172;-72
2024/02/04 02:22:43;;;;;;;8.00;7.40;;;10.00;99.90;;;;;;5135794;27;20251;-72
2024/02/04 02:25:10;;;;;;;8.83;8.00;;;10.00;99.90;;;;;;5135479;27;20196;-72
2024/02/04 02:27:49;;;;;;;9.07;8.17;;;10.00;99.90;;;;;;5135432;27;20175;-72
2024/02/04 02:30:16;;;;;;;9.30;8.17;;;10.00;99.90;;;;;;5135273;27;20172;-73
2024/02/04 02:32:43;;;;;;;8.67;7.90;;;10.10;99.90;;;;;;5135263;27;20204;-72
2024/02/04 02:35:09;;;;;;;9.27;8.30;;;10.00;99.90;;;;;;5135384;27;20258;-72
2024/02/04 02:37:53;;;;;;;8.53;7.83;;;10.10;99.90;;;;;;5135769;27;20171;-72
2024/02/04 02:40:28;;;;;;;8.80;8.00;;;10.10;99.90;;;;;;5135070;27;20195;-71
2024/02/04 02:42:57;;;;;;;9.03;8.23;;;10.10;99.90;;;;;;5135706;27;20167;-71
2024/02/04 02:45:24;;;;;;;8.80;8.00;;;10.00;99.90;;;;;;5135685;27;20187;-72
2024/02/04 02:47:51;;;;;;;8.90;8.20;;;10.00;99.90;;;;;;5134945;27;20251;-71
2024/02/04 02:50:17;;;;;;;8.37;7.67;;;10.10;99.90;;;;;;5135247;27;20696;-70
2024/02/04 02:52:42;;;;;;;9.40;8.03;;;10.10;99.90;;;;;;5117194;27;20204;-72
2024/02/04 02:55:08;;;;;;;8.50;7.70;;;10.10;99.90;;;;;;5135379;27;20591;-73
2024/02/04 02:57:34;;;;;;;8.97;7.97;;;10.10;99.90;;;;;;5135306;27;20176;-73
2024/02/04 02:59:59;;;;;;;8.73;7.93;;;10.10;99.90;;;;;;5134418;27;20566;-73
2024/02/04 03:02:25;;;;;;;9.87;8.80;;;10.10;99.90;;;;;;5134964;27;20176;-73
2024/02/04 03:04:50;;;;;;;8.63;7.93;;;10.10;99.90;;;;;;5134800;27;20410;-73
2024/02/04 03:07:18;;;;;;;9.23;8.33;;;10.10;99.90;;;;;;5135044;27;20165;-73
2024/02/04 03:09:44;;;;;;;8.33;7.53;;;10.10;99.90;;;;;;5134584;27;20653;-73
2024/02/04 03:12:10;;;;;;;8.33;7.63;;;10.10;99.90;;;;;;5134936;27;20160;-72
2024/02/04 03:14:36;;;;;;;8.60;7.87;;;10.10;99.90;;;;;;5135013;27;20308;-73
2024/02/04 03:17:01;;;;;;;9.33;8.33;;;10.10;99.90;;;;;;5134558;27;20209;-74
2024/02/04 03:19:27;;;;;;;8.90;8.13;;;10.10;99.90;;;;;;5134489;27;20164;-72
2024/02/04 03:21:52;;;;;;;10.10;9.10;;;10.10;99.90;;;;;;5116186;27;20936;-72
2024/02/04 03:24:18;;;;;;;10.13;9.23;;;10.10;99.90;;;;;;5134355;27;20195;-73
2024/02/04 03:26:43;;;;;;;11.20;9.97;;;10.10;99.90;;;;;;5116326;27;20164;-73
2024/02/04 03:29:09;;;;;;;10.17;9.23;;;10.10;99.90;;;;;;5134546;27;20184;-72
2024/02/04 03:31:35;;;;;;;10.70;9.70;;;10.10;99.90;;;;;;5115021;27;20215;-72
2024/02/04 03:34:00;;;;;;;10.23;9.20;;;10.20;99.90;;;;;;5134441;27;20192;-73
2024/02/04 03:36:27;;;;;;;10.77;9.77;;;10.20;99.90;;;;;;5134527;27;20168;-73
2024/02/04 03:38:52;;;;;;;10.97;9.87;;;10.20;99.90;;;;;;5134221;27;20689;-72
2024/02/04 03:41:18;;;;;;;11.97;10.60;;;10.10;99.90;;;;;;5134086;27;20275;-73
2024/02/04 03:43:44;;;;;;;11.10;9.83;;;10.20;99.90;;;;;;5134106;27;20202;-74
2024/02/04 03:46:17;;;;;;;11.03;9.93;;;10.20;99.90;;;;;;5115669;27;20540;-73
2024/02/04 03:48:43;;;;;;;10.83;9.80;;;10.20;99.90;;;;;;5115701;27;20168;-72
2024/02/04 03:51:14;;;;;;;12.57;11.33;;;10.20;99.90;;;;;;5134155;27;20168;-72
2024/02/04 03:53:40;;;;;;;13.27;10.80;;;10.20;99.90;;;;;;5134053;27;20668;-72
2024/02/04 03:56:05;;;;;;;15.03;10.80;;;10.20;99.90;;;;;;5133694;27;20244;-72
2024/02/04 03:58:32;;;;;;;11.47;10.30;;;10.20;99.90;;;;;;5134270;27;20672;-72
2024/02/04 04:00:59;;;;;;;11.27;10.17;;;10.20;99.90;;;;;;5133802;27;20684;-72
2024/02/04 04:03:25;;;;;;;13.87;10.17;;;10.20;99.90;;;;;;5134223;27;20191;-72
2024/02/04 04:05:52;;;;;;;11.83;10.63;;;10.20;99.90;;;;;;5133962;27;20199;-71
2024/02/04 04:08:18;;;;;;;14.23;11.03;;;10.20;99.90;;;;;;5133651;27;20180;-71
2024/02/04 04:10:44;;;;;;;12.33;10.63;;;10.20;99.90;;;;;;5133674;27;20356;-71
2024/02/04 04:13:10;;;;;;;11.80;10.70;;;10.20;99.90;;;;;;5115396;27;20180;-71
2024/02/04 04:15:36;;;;;;;10.13;9.20;;;10.20;99.90;;;;;;5133673;27;20194;-72
2024/02/04 04:18:01;;;;;;;11.20;10.17;;;10.20;99.90;;;;;;5133454;27;20233;-73
2024/02/04 04:20:27;;;;;;;10.13;9.20;;;10.20;99.90;;;;;;5133087;27;20196;-71
2024/02/04 04:23:01;;;;;;;9.97;9.03;;;10.20;99.90;;;;;;5133438;27;20263;-72
2024/02/04 04:25:27;;;;;;;10.57;9.03;;;10.20;99.90;;;;;;5133091;27;20194;-72
2024/02/04 04:27:53;;;;;;;10.13;9.13;;;10.20;99.90;;;;;;5133206;27;20513;-73
2024/02/04 04:30:18;;;;;;;9.27;8.37;;;10.30;99.90;;;;;;5132949;27;20176;-72
2024/02/04 04:32:44;;;;;;;11.40;10.20;;;10.20;99.90;;;;;;5133329;27;20188;-72
2024/02/04 04:35:09;;;;;;;11.23;10.13;;;10.30;99.90;;;;;;5133076;27;20195;-72
2024/02/04 04:37:35;;;;;;;11.13;10.03;;;10.30;99.90;;;;;;5133161;27;20259;-72
2024/02/04 04:40:01;;;;;;;10.73;9.67;;;10.20;99.90;;;;;;5132356;27;20200;-72
2024/02/04 04:42:26;;;;;;;10.60;9.40;;;10.20;99.90;;;;;;5132926;27;20536;-71
2024/02/04 04:44:52;;;;;;;13.07;11.57;;;10.30;99.90;;;;;;5132960;27;20180;-71
2024/02/04 04:47:17;;;;;;;13.20;11.73;;;10.30;99.90;;;;;;5132929;27;20316;-71
2024/02/04 04:49:43;;;;;;;13.80;11.37;;;10.20;99.90;;;;;;5132784;27;20183;-71
2024/02/04 04:52:08;;;;;;;12.90;11.60;;;10.20;99.90;;;;;;5132721;27;20641;-72
2024/02/04 04:54:34;;;;;;;12.30;10.90;;;10.20;99.90;;;;;;5132716;27;20672;-72
2024/02/04 04:56:59;;;;;;;16.67;12.47;;;10.20;99.90;;;;;;5132740;27;20168;-72
2024/02/04 04:59:25;;;;;;;15.47;11.97;;;10.20;99.90;;;;;;5132415;27;20187;-72
2024/02/04 05:01:51;;;;;;;13.53;12.13;;;10.20;99.90;;;;;;5132898;27;20196;-72
2024/02/04 05:04:18;;;;;;;11.33;9.60;;;10.20;99.90;;;;;;5113843;27;20188;-72
2024/02/04 05:06:44;;;;;;;18.83;12.23;;;10.20;99.90;;;;;;5132431;27;20164;-72
2024/02/04 05:09:10;;;;;;;13.83;12.07;;;10.20;99.90;;;;;;5132414;27;20187;-71
2024/02/04 05:11:35;;;;;;;14.13;12.00;;;10.20;99.90;;;;;;5132502;27;20196;-71
2024/02/04 05:14:01;;;;;;;15.57;12.13;;;10.20;99.90;;;;;;5132213;27;20208;-71
2024/02/04 05:16:26;;;;;;;15.60;12.13;;;10.20;99.90;;;;;;5132456;27;20196;-72
2024/02/04 05:18:52;;;;;;;17.93;12.50;;;10.20;99.90;;;;;;5132405;27;20539;-70
2024/02/04 05:21:18;;;;;;;15.53;12.87;;;10.20;99.90;;;;;;5132495;27;20203;-74
2024/02/04 05:23:43;;;;;;;16.17;12.57;;;10.20;99.90;;;;;;5132702;27;20259;-71
2024/02/04 05:26:09;;;;;;;17.23;13.40;;;10.30;99.90;;;;;;5132214;27;20176;-71
2024/02/04 05:28:34;;;;;;;15.33;12.97;;;10.30;99.90;;;;;;5131808;27;20214;-71
2024/02/04 05:31:02;;;;;;;14.97;13.00;;;10.20;99.90;;;;;;5131999;27;20199;-72
2024/02/04 05:33:28;;;;;;;16.20;12.50;;;10.30;99.90;;;;;;5113933;27;20199;-70
2024/02/04 05:35:53;;;;;;;15.33;11.93;;;10.30;99.90;;;;;;5114087;27;20264;-71
2024/02/04 05:38:19;;;;;;;12.83;11.37;;;10.30;99.90;;;;;;5132411;27;20187;-72
2024/02/04 05:40:44;;;;;;;15.50;12.60;;;10.30;99.90;;;;;;5131990;27;20214;-70
2024/02/04 05:43:10;;;;;;;13.63;11.90;;;10.30;99.90;;;;;;5132171;27;20525;-71
2024/02/04 05:45:40;;;;;;;15.50;12.23;;;10.30;99.90;;;;;;5132356;27;20277;-71
2024/02/04 05:48:07;;;;;;;14.80;12.23;;;10.30;99.90;;;;;;5131632;27;20176;-72
2024/02/04 05:50:32;;;;;;;15.60;12.27;;;10.20;99.90;;;;;;5132020;27;20168;-72
2024/02/04 05:52:58;;;;;;;13.23;11.80;;;10.20;99.90;;;;;;5131722;27;20181;-71
2024/02/04 05:55:23;;;;;;;15.03;12.37;;;10.30;99.90;;;;;;5131190;28;20595;-71
2024/02/04 05:57:49;;;;;;;18.10;12.73;;;10.30;99.90;;;;;;5131822;28;20176;-71
2024/02/04 06:00:15;;;;;;;17.67;12.80;;;10.30;99.90;;;;;;5131514;28;20207;-72
2024/02/04 06:02:42;;;;;;;16.10;13.63;;;10.20;99.90;;;;;;5131289;28;20176;-71
2024/02/04 06:05:09;;;;;;;12.97;11.50;;;10.20;99.90;;;;;;5131774;28;20188;-73
2024/02/04 06:07:34;;;;;;;14.77;11.60;;;10.20;99.90;;;;;;5131841;28;20171;-71
2024/02/04 06:10:03;;;;;;;13.70;11.33;;;10.20;99.90;;;;;;5113100;28;20168;-71
2024/02/04 06:12:29;;;;;;;11.90;10.70;;;10.20;99.90;;;;;;5131571;28;20192;-71
2024/02/04 06:14:54;;;;;;;19.33;11.90;;;10.20;99.90;;;;;;5113179;28;20622;-71
2024/02/04 06:17:20;;;;;;;15.57;10.97;;;10.30;99.90;;;;;;5131900;28;20172;-72
2024/02/04 06:19:46;;;;;;;14.03;11.43;;;10.20;99.90;;;;;;5131605;28;20629;-70
2024/02/04 06:22:11;;;;;;;16.83;12.67;;;10.30;99.90;;;;;;5131469;28;20204;-71
2024/02/04 06:24:38;;;;;;;14.47;10.43;;;10.30;99.90;;;;;;5131710;28;20232;-71
2024/02/04 06:27:04;;;;;;;13.83;10.87;;;10.30;99.90;;;;;;5131732;28;20164;-70
2024/02/04 06:29:30;;;;;;;12.40;11.03;;;10.30;99.90;;;;;;5131922;28;20201;-72
2024/02/04 06:31:56;;;;;;;15.63;11.20;;;10.40;99.90;;;;;;5131542;28;20191;-71
2024/02/04 06:34:21;;;;;;;12.63;10.97;;;10.30;99.90;;;;;;5131386;28;20215;-72
2024/02/04 06:36:47;;;;;;;12.67;10.70;;;10.40;99.90;;;;;;5131404;28;20294;-71
2024/02/04 06:39:13;;;;;;;12.70;11.20;;;10.40;99.90;;;;;;5131581;28;20175;-72
2024/02/04 06:41:39;;;;;;;14.27;10.40;;;10.40;99.90;;;;;;5131333;28;20203;-71
2024/02/04 06:44:05;;;;;;;12.03;9.30;;;10.40;99.90;;;;;;5131658;28;20675;-72
2024/02/04 06:46:31;;;;;;;11.20;9.80;;;10.40;99.90;;;;;;5131330;28;20164;-71
2024/02/04 06:48:57;;;;;;;11.00;9.80;;;10.40;99.90;;;;;;5131238;28;20176;-71
2024/02/04 06:51:23;;;;;;;12.87;10.40;;;10.40;99.90;;;;;;5131199;28;20221;-71
2024/02/04 06:53:48;;;;;;;11.50;10.40;;;10.40;99.90;;;;;;5131435;28;20252;-72
2024/02/04 06:56:14;;;;;;;13.70;9.97;;;10.30;99.90;;;;;;5131175;28;20271;-72
2024/02/04 06:58:41;;;;;;;10.30;9.30;;;10.40;99.90;;;;;;5131361;28;20636;-71
2024/02/04 07:01:06;;;;;;;9.73;8.73;;;10.30;99.90;;;;;;5131028;28;20295;-73
2024/02/04 07:03:32;;;;;;;10.60;8.73;;;10.30;99.90;;;;;;5131401;28;20259;-71
2024/02/04 07:05:59;;;;;;;9.00;8.20;;;10.30;99.90;;;;;;5132076;27;20226;-72
2024/02/04 07:08:25;;;;;;;9.27;8.37;;;10.30;99.90;;;;;;5135094;27;20294;-71
2024/02/04 07:10:51;;;;;;;9.33;8.53;;;10.30;99.90;;;;;;5134943;27;20184;-73
2024/02/04 07:13:17;;;;;;;7.80;7.17;;;10.20;99.90;;;;;;5134985;27;20172;-72
2024/02/04 07:15:43;;;;;;;8.87;8.07;;;10.20;99.90;;;;;;5134629;27;20350;-73
2024/02/04 07:18:09;;;;;;;7.73;6.93;;;10.20;99.90;;;;;;5133279;27;20284;-73
2024/02/04 07:20:35;;;;;;;8.20;7.60;;;10.20;99.90;;;;;;5137144;27;20335;-71
2024/02/04 07:23:00;;;;;;;8.00;7.20;;;10.20;99.90;;;;;;5139997;27;20525;-73
2024/02/04 07:25:26;;;;;;;7.60;7.00;;;10.20;99.90;;;;;;5134677;27;20191;-72
2024/02/04 07:27:52;;;;;;;7.53;7.00;;;10.20;99.90;;;;;;5134379;27;20176;-71
2024/02/04 07:30:17;;;;;;;7.77;7.17;;;10.20;99.90;;;;;;5133871;27;20180;-69
2024/02/04 07:32:43;;;;;;;7.17;6.67;;;10.20;99.90;;;;;;5134586;27;20187;-70
2024/02/04 07:35:09;;;;;;;7.60;7.00;;;10.20;99.90;;;;;;5134567;27;20263;-70
2024/02/04 07:37:37;;;;;;;6.50;6.10;;;10.20;99.90;;;;;;5134680;27;20640;-69
2024/02/04 07:40:06;;;;;;;6.70;6.10;;;10.20;99.90;;;;;;5134148;27;20168;-71
2024/02/04 07:42:31;;;;;;;6.77;6.33;;;10.20;99.90;;;;;;5134338;27;20168;-70
2024/02/04 07:44:57;;;;;;;6.57;6.10;;;10.20;99.90;;;;;;5134095;27;20184;-71
2024/02/04 07:47:23;;;;;;;6.17;5.73;;;10.20;99.90;;;;;;5134553;27;20183;-71
2024/02/04 07:49:49;;;;;;;6.37;5.97;;;10.20;99.90;;;;;;5134598;27;20168;-70
2024/02/04 07:52:15;;;;;;;6.20;5.80;;;10.30;99.90;;;;;;5134366;27;20200;-70
2024/02/04 07:54:40;;;;;;;6.07;5.67;;;10.20;99.90;;;;;;5134199;27;20544;-70
2024/02/04 07:57:06;;;;;;;6.67;6.23;;;10.30;99.90;;;;;;5144275;22;20241;-74
2024/02/04 07:59:32;;;;;;;6.90;6.40;;;10.20;99.90;;;;;;5092844;28;20656;-74
2024/02/04 08:01:58;;;;;;;6.77;6.10;;;10.30;99.90;;;;;;5092804;28;20213;-73
2024/02/04 08:04:23;;;;;;;7.03;6.53;;;10.30;99.90;;;;;;5092770;28;20545;-73
2024/02/04 08:06:49;;;;;;;7.00;6.50;;;10.30;99.90;;;;;;5092483;28;20208;-73
2024/02/04 08:09:15;;;;;;;7.03;6.53;;;10.30;99.90;;;;;;5074078;28;20735;-73
2024/02/04 08:11:40;;;;;;;6.80;6.40;;;10.40;99.90;;;;;;5092652;28;20545;-72
2024/02/04 08:14:06;;;;;;;7.40;6.90;;;10.40;99.90;;;;;;5092262;28;20174;-72
2024/02/04 08:16:32;;;;;;;7.73;7.13;;;10.40;99.90;;;;;;5091954;28;20194;-72
2024/02/04 08:18:58;;;;;;;8.17;7.57;;;10.40;99.90;;;;;;5092246;28;20181;-72
2024/02/04 08:21:24;;;;;;;7.10;6.50;;;10.40;99.90;;;;;;5092108;28;20224;-72
2024/02/04 08:23:49;;;;;;;7.17;6.47;;;10.40;99.90;;;;;;5092797;28;20173;-72
2024/02/04 08:26:15;;;;;;;7.17;6.47;;;10.40;99.90;;;;;;5092205;28;20201;-72
2024/02/04 08:28:41;;;;;;;7.20;6.50;;;10.50;99.90;;;;;;5092219;28;20166;-72
2024/02/04 08:31:06;;;;;;;6.57;6.07;;;10.50;99.90;;;;;;5090773;28;20196;-72
2024/02/04 08:33:32;;;;;;;6.83;6.33;;;10.50;99.90;;;;;;5091755;28;20322;-71
2024/02/04 08:35:58;;;;;;;7.40;6.70;;;10.50;99.90;;;;;;5091764;28;20254;-72
2024/02/04 08:38:23;;;;;;;6.50;6.00;;;10.50;99.90;;;;;;5090736;28;20219;-72
2024/02/04 08:40:49;;;;;;;6.63;6.03;;;10.60;99.90;;;;;;5091777;28;20217;-72
2024/02/04 08:43:15;;;;;;;7.10;6.50;;;10.60;99.90;;;;;;5091349;28;20637;-72
2024/02/04 08:45:41;;;;;;;8.40;6.67;;;10.60;99.90;;;;;;5091553;28;20567;-73
2024/02/04 08:48:07;;;;;;;7.60;6.90;;;10.60;99.90;;;;;;5091615;28;20189;-72
2024/02/04 08:50:33;;;;;;;7.13;6.40;;;10.60;99.90;;;;;;5073086;28;20177;-72
2024/02/04 08:52:58;;;;;;;7.23;6.53;;;10.60;99.90;;;;;;5091820;28;20519;-72
2024/02/04 08:55:24;;;;;;;8.43;6.70;;;10.60;99.90;;;;;;5091388;28;20193;-73
2024/02/04 08:57:50;;;;;;;6.70;6.10;;;10.60;99.90;;;;;;5091555;28;20227;-72
2024/02/04 09:00:16;;;;;;;7.97;6.83;;;10.60;99.90;;;;;;5072431;28;20216;-72
2024/02/04 09:02:42;;;;;;;7.10;6.40;;;10.60;99.90;;;;;;5091611;28;20248;-72
2024/02/04 09:05:08;;;;;;;7.10;6.47;;;10.70;99.90;;;;;;5091090;28;20611;-72
2024/02/04 09:07:34;;;;;;;8.53;6.90;;;10.70;99.90;;;;;;5091373;28;20534;-72
2024/02/04 09:09:59;;;;;;;7.43;6.13;;;10.70;99.90;;;;;;5091066;28;20161;-72
2024/02/04 09:12:25;;;;;;;9.43;7.13;;;10.70;99.90;;;;;;5090846;28;20173;-72
2024/02/04 09:14:50;;;;;;;6.10;5.53;;;10.70;99.90;;;;;;5091642;28;20169;-72
2024/02/04 09:17:16;;;;;;;6.00;5.57;;;10.80;99.90;;;;;;5091048;28;20237;-72
2024/02/04 09:19:42;;;;;;;5.53;5.13;;;10.80;99.90;;;;;;5091033;28;20189;-73
2024/02/04 09:22:07;;;;;;;5.30;4.93;;;10.80;99.90;;;;;;5090821;28;20197;-73
2024/02/04 09:24:33;;;;;;;6.23;5.73;;;10.70;99.90;;;;;;5073050;28;20181;-73
2024/02/04 09:26:58;;;;;;;5.63;5.23;;;10.70;99.90;;;;;;5052449;28;20245;-73
2024/02/04 09:29:24;;;;;;;5.50;5.10;;;10.80;99.90;;;;;;5069824;28;20211;-73
2024/02/04 09:31:51;;;;;;;4.93;4.63;;;10.90;99.90;;;;;;5070850;28;20185;-73
2024/02/04 09:34:17;;;;;;;5.30;5.00;;;10.90;99.90;;;;;;5052630;28;20184;-73
2024/02/04 09:36:44;;;;;;;5.10;4.80;;;10.80;99.90;;;;;;5071182;28;20269;-73
2024/02/04 09:39:09;;;;;;;5.00;4.70;;;10.90;99.90;;;;;;5070716;28;20162;-73
2024/02/04 09:41:35;;;;;;;5.73;5.33;;;10.90;99.90;;;;;;5086345;28;20224;-72
2024/02/04 09:44:03;;;;;;;5.63;5.23;;;10.90;99.90;;;;;;5090941;28;20272;-72
2024/02/04 09:46:29;;;;;;;5.63;5.23;;;11.00;99.90;;;;;;5090915;28;20189;-72
2024/02/04 09:48:55;;;;;;;5.60;5.10;;;11.10;99.90;;;;;;5091006;28;20200;-72
2024/02/04 09:51:22;;;;;;;5.80;5.30;;;11.10;99.90;;;;;;5090832;28;20185;-72
2024/02/04 09:53:52;;;;;;;6.17;5.60;;;11.20;99.90;;;;;;5090791;28;20199;-72
2024/02/04 09:56:18;;;;;;;8.83;5.53;;;11.30;99.90;;;;;;5090729;28;20721;-72
2024/02/04 09:58:44;;;;;;;6.37;5.87;;;11.30;99.90;;;;;;5090950;28;20264;-72
2024/02/04 10:01:11;;;;;;;6.27;5.77;;;11.30;99.90;;;;;;5090455;28;20258;-72
2024/02/04 10:03:37;;;;;;;7.93;6.20;;;11.30;99.90;;;;;;5091123;28;20204;-72
2024/02/04 10:06:03;;;;;;;5.87;5.37;;;11.30;99.90;;;;;;5090766;28;20567;-71
2024/02/04 10:08:29;;;;;;;7.63;5.80;;;11.40;99.90;;;;;;5090433;28;20616;-71
2024/02/04 10:10:54;;;;;;;6.97;5.80;;;11.40;99.90;;;;;;5072775;28;20252;-71
2024/02/04 10:13:21;;;;;;;6.20;5.60;;;11.30;99.90;;;;;;5090849;28;20181;-71
2024/02/04 10:15:48;;;;;;;6.37;5.77;;;11.30;99.90;;;;;;5090735;28;20190;-71
2024/02/04 10:18:13;;;;;;;6.43;5.60;;;11.40;99.90;;;;;;5090895;28;20177;-71
2024/02/04 10:20:39;;;;;;;6.93;6.23;;;11.40;99.90;;;;;;5090602;28;20201;-71
2024/02/04 10:23:04;;;;;;;6.60;6.03;;;11.30;99.90;;;;;;5090387;28;20166;-71
2024/02/04 10:25:30;;;;;;;6.67;6.03;;;11.30;99.90;;;;;;5090471;28;20666;-72
2024/02/04 10:27:57;;;;;;;7.67;6.13;;;11.40;99.90;;;;;;5090751;28;20246;-72
2024/02/04 10:30:23;;;;;;;8.60;6.50;;;11.40;99.90;;;;;;5090055;28;20180;-71
2024/02/04 10:32:52;;;;;;;6.93;6.30;;;11.50;99.90;;;;;;5090770;28;20169;-70
2024/02/04 10:35:22;;;;;;;7.43;6.73;;;11.50;99.90;;;;;;5089829;28;20625;-71
2024/02/04 10:37:48;;;;;;;7.73;7.03;;;11.60;99.90;;;;;;5090493;28;20205;-71
2024/02/04 10:40:14;;;;;;;6.07;5.57;;;11.60;99.90;;;;;;5091878;28;20169;-71
2024/02/04 10:42:43;;;;;;;6.30;5.80;;;11.70;99.90;;;;;;5094711;28;20268;-71
2024/02/04 10:45:10;;;;;;;6.57;5.93;;;11.60;99.90;;;;;;5094186;28;20174;-71
2024/02/04 10:47:38;;;;;;;7.83;6.20;;;11.60;99.90;;;;;;5094246;28;20291;-71
2024/02/04 10:50:05;;;;;;;6.03;5.43;;;11.70;99.90;;;;;;5093524;28;20634;-71
2024/02/04 10:52:39;;;;;;;6.00;5.40;;;11.60;99.90;;;;;;5094433;28;20162;-72
2024/02/04 10:55:08;;;;;;;6.10;5.50;;;11.50;99.90;;;;;;5094105;28;20179;-71
2024/02/04 10:57:34;;;;;;;6.20;5.60;;;11.50;99.90;;;;;;5094247;28;20558;-72
2024/02/04 11:00:04;;;;;;;5.27;4.87;;;11.50;99.90;;;;;;5093701;28;20176;-72
2024/02/04 11:02:33;;;;;;;6.50;5.57;;;11.50;99.90;;;;;;5094032;28;20174;-72
2024/02/04 11:05:00;;;;;;;5.73;5.23;;;11.50;99.90;;;;;;5093537;28;20547;-72
2024/02/04 11:07:26;;;;;;;4.93;4.63;;;11.50;99.90;;;;;;5093826;28;20177;-71
2024/02/04 11:09:53;;;;;;;5.57;5.10;;;11.50;99.90;;;;;;5093476;28;20165;-71
2024/02/04 11:12:21;;;;;;;6.53;5.10;;;11.50;99.90;;;;;;5093786;28;20165;-71
2024/02/04 11:14:51;;;;;;;5.17;4.77;;;11.40;99.90;;;;;;5093794;28;22123;-72
2024/02/04 11:17:48;;;;;;;5.80;5.37;;;11.30;99.90;;;;;;5093357;28;20279;-72
2024/02/04 11:20:32;;;;;;;5.07;4.73;;;11.30;99.90;;;;;;5093576;28;20185;-73
2024/02/04 11:22:58;;;;;;;5.37;4.83;;;11.30;99.90;;;;;;5094049;28;20546;-72
2024/02/04 11:25:40;;;;;;;6.67;5.97;;;11.20;99.90;;;;;;5093725;28;20242;-71
2024/02/04 11:28:06;;;;;;;5.43;5.00;;;11.20;99.90;;;;;;5093816;28;20173;-70
2024/02/04 11:30:35;;;;;;;5.97;5.37;;;11.20;99.90;;;;;;5093040;28;20228;-71
2024/02/04 11:33:05;;;;;;;4.90;4.60;;;11.20;99.90;;;;;;5092968;28;20173;-70
2024/02/04 11:35:32;;;;;;;5.30;4.90;;;11.10;99.90;;;;;;5093635;28;20202;-71
2024/02/04 11:37:58;;;;;;;5.47;5.03;;;11.10;99.90;;;;;;5094465;28;20635;-71
2024/02/04 11:40:30;;;;;;;5.33;4.93;;;11.10;99.90;;;;;;5092571;28;20240;-72
2024/02/04 11:43:06;;;;;;;6.60;6.00;;;11.10;99.90;;;;;;5092956;28;20174;-72
2024/02/04 11:45:32;;;;;;;8.93;5.90;;;11.20;99.90;;;;;;5093066;28;20658;-72
2024/02/04 11:48:02;;;;;;;6.40;5.90;;;11.30;99.90;;;;;;5093172;28;20180;-71
2024/02/04 11:50:30;;;;;;;6.30;5.70;;;11.30;99.90;;;;;;5092680;28;20184;-70
2024/02/04 11:53:10;;;;;;;7.03;6.40;;;11.40;99.90;;;;;;5074006;28;20192;-71
2024/02/04 11:55:36;;;;;;;8.27;5.57;;;11.40;99.90;;;;;;5092969;28;20211;-71
2024/02/04 11:58:07;;;;;;;6.50;5.83;;;11.40;99.90;;;;;;5093036;28;20173;-72
2024/02/04 12:00:36;;;;;;;6.43;5.93;;;11.40;99.90;;;;;;5092166;28;20220;-72
2024/02/04 12:03:06;;;;;;;7.10;5.80;;;11.30;99.90;;;;;;5092857;28;20248;-72
2024/02/04 12:05:33;;;;;;;6.03;5.50;;;11.30;99.90;;;;;;5092657;28;20649;-71
2024/02/04 12:08:04;;;;;;;6.43;5.83;;;11.30;99.90;;;;;;5092767;28;20173;-72
2024/02/04 12:10:31;;;;;;;6.07;5.57;;;11.30;99.90;;;;;;5091896;28;20268;-71
2024/02/04 12:13:02;;;;;;;7.40;6.70;;;11.30;99.90;;;;;;5092629;28;20185;-71
2024/02/04 12:15:28;;;;;;;6.93;6.33;;;11.30;99.90;;;;;;5072181;28;20694;-72
2024/02/04 12:17:55;;;;;;;6.50;5.90;;;11.20;99.90;;;;;;5072277;28;20208;-71
2024/02/04 12:20:21;;;;;;;7.47;6.87;;;11.20;99.90;;;;;;5071624;28;20293;-71
2024/02/04 12:22:48;;;;;;;7.67;6.87;;;11.10;99.90;;;;;;5072022;28;20686;-71
2024/02/04 12:25:14;;;;;;;6.80;6.10;;;11.20;99.90;;;;;;5071961;28;20570;-72
2024/02/04 12:27:40;;;;;;;9.10;5.57;;;11.20;99.90;;;;;;5072221;28;20176;-72
2024/02/04 12:30:07;;;;;;;6.10;5.60;;;11.20;99.90;;;;;;5091183;28;20264;-72
2024/02/04 12:32:33;;;;;;;6.13;5.57;;;11.20;99.90;;;;;;5092258;28;20200;-72
2024/02/04 12:34:58;;;;;;;7.20;6.60;;;11.20;99.90;;;;;;5092439;28;20653;-72
2024/02/04 12:37:26;;;;;;;6.70;6.20;;;11.20;99.90;;;;;;5091977;28;20180;-72